createdAt,value
2023-02-14T00:48:02.413Z,22.50
2023-02-14T00:50:31.122Z,22.50
2023-02-14T00:52:59.996Z,22.50
2023-02-14T00:55:28.973Z,22.30
2023-02-14T00:57:57.424Z,22.40
2023-02-14T01:47:17.658Z,22.40
2023-02-14T01:49:55.559Z,22.40
2023-02-14T01:52:28.325Z,22.40
2023-02-14T01:55:01.597Z,22.50
2023-02-14T01:57:36.220Z,22.40
2023-02-14T02:47:04.403Z,22.30
2023-02-14T02:50:00.359Z,22.30
2023-02-14T02:52:56.162Z,22.30
2023-02-14T02:55:52.860Z,22.30
2023-02-14T02:58:22.591Z,22.30
2023-02-14T03:45:19.562Z,22.30
2023-02-14T03:47:49.968Z,22.20
2023-02-14T03:50:21.328Z,22.20
2023-02-14T03:52:53.348Z,22.20
2023-02-14T03:55:31.485Z,22.20
2023-02-14T03:58:08.844Z,22.20
2023-02-14T04:45:35.656Z,22.20
2023-02-14T04:48:05.756Z,22.40
2023-02-14T04:50:34.486Z,22.20
2023-02-14T04:53:03.008Z,22.20
2023-02-14T04:55:31.427Z,22.20
2023-02-14T04:57:59.765Z,22.20
2023-02-14T05:47:57.405Z,22.20
2023-02-14T05:50:27.309Z,22.20
2023-02-14T05:52:56.479Z,22.20
2023-02-14T05:55:26.318Z,22.20
2023-02-14T05:57:54.716Z,22.20
2023-02-14T06:00:25.088Z,22.40
2023-02-14T06:02:53.444Z,22.20
2023-02-14T06:05:23.371Z,22.20
2023-02-14T06:07:52.316Z,22.20
2023-02-14T06:10:23.672Z,22.20
2023-02-14T06:12:54.117Z,22.20
2023-02-14T06:15:23.223Z,22.20
2023-02-14T06:17:56.131Z,22.20
2023-02-14T06:20:27.634Z,22.20
2023-02-14T06:22:56.730Z,22.10
2023-02-14T06:25:26.370Z,22.20
2023-02-14T06:27:58.384Z,22.30
2023-02-14T06:30:27.796Z,22.20
2023-02-14T06:32:56.321Z,22.20
2023-02-14T06:35:26.074Z,22.20
2023-02-14T06:37:54.425Z,22.20
2023-02-14T06:40:24.035Z,22.20
2023-02-14T06:42:52.713Z,22.20
2023-02-14T06:45:21.331Z,22.20
2023-02-14T06:47:49.899Z,22.20
2023-02-14T06:50:21.748Z,22.20
2023-02-14T06:52:52.011Z,22.20
2023-02-14T06:55:20.991Z,22.10
2023-02-14T06:57:49.916Z,22.20
2023-02-14T07:00:20.855Z,22.20
2023-02-14T07:02:49.477Z,22.20
2023-02-14T07:05:19.138Z,22.20
2023-02-14T07:07:47.866Z,22.20
2023-02-14T07:10:18.367Z,22.20
2023-02-14T07:12:46.998Z,22.20
2023-02-14T07:15:16.210Z,22.20
2023-02-14T07:17:45.100Z,22.20
2023-02-14T07:20:14.873Z,22.20
2023-02-14T07:22:43.283Z,22.20
2023-02-14T07:25:13.253Z,22.20
2023-02-14T07:27:43.376Z,22.20
2023-02-14T07:30:13.426Z,22.20
2023-02-14T07:32:42.569Z,22.20
2023-02-14T07:35:11.363Z,22.20
2023-02-14T07:37:40.079Z,22.20
2023-02-14T07:40:14.583Z,22.00
2023-02-14T07:42:45.629Z,22.20
2023-02-14T07:45:21.542Z,22.20
2023-02-14T07:47:51.811Z,22.00
2023-02-14T07:50:21.426Z,22.20
2023-02-14T07:52:50.294Z,22.10
2023-02-14T07:55:19.337Z,22.10
2023-02-14T07:57:50.598Z,22.10
2023-02-14T08:00:20.827Z,22.20
2023-02-14T08:02:49.495Z,22.20
2023-02-14T08:05:18.664Z,22.20
2023-02-14T08:07:47.306Z,22.20
2023-02-14T08:10:15.835Z,22.10
2023-02-14T08:13:03.568Z,22.10
2023-02-14T08:15:53.411Z,22.20
2023-02-14T08:18:24.083Z,22.10
2023-02-14T08:20:52.865Z,22.10
2023-02-14T08:23:22.158Z,22.10
2023-02-14T08:25:52.306Z,22.10
2023-02-14T08:28:24.290Z,22.10
2023-02-14T08:30:55.059Z,22.10
2023-02-14T08:33:23.903Z,22.20
2023-02-14T08:35:53.340Z,22.10
2023-02-14T08:38:21.829Z,22.10
2023-02-14T08:40:50.274Z,22.10
2023-02-14T08:43:18.665Z,22.10
2023-02-14T08:45:48.452Z,22.10
2023-02-14T08:48:18.239Z,22.10
2023-02-14T08:50:46.713Z,22.10
2023-02-14T08:53:15.556Z,22.10
2023-02-14T08:55:44.697Z,22.10
2023-02-14T08:58:13.138Z,22.10
2023-02-14T09:00:41.814Z,22.10
2023-02-14T09:03:10.668Z,22.10
2023-02-14T09:05:40.519Z,22.20
2023-02-14T09:08:09.186Z,22.10
2023-02-14T09:10:38.271Z,22.20
2023-02-14T09:13:07.332Z,22.10
2023-02-14T09:15:35.774Z,22.10
2023-02-14T09:18:04.860Z,22.10
2023-02-14T09:20:33.525Z,22.10
2023-02-14T09:23:03.619Z,22.10
2023-02-14T09:25:33.145Z,22.20
2023-02-14T09:28:02.087Z,22.10
2023-02-14T09:30:31.037Z,22.10
2023-02-14T09:33:00.307Z,21.90
2023-02-14T09:35:28.824Z,22.10
2023-02-14T09:38:17.057Z,22.10
2023-02-14T09:40:48.432Z,22.10
2023-02-14T09:43:24.973Z,22.10
2023-02-14T09:45:57.783Z,22.00
2023-02-14T09:48:31.020Z,22.00
2023-02-14T09:51:04.613Z,22.00
2023-02-14T09:53:36.646Z,22.00
2023-02-14T09:56:17.241Z,22.10
2023-02-14T09:58:54.125Z,22.10
2023-02-14T10:01:27.546Z,22.20
2023-02-14T10:04:22.493Z,22.20
2023-02-14T10:06:58.397Z,22.20
2023-02-14T10:09:50.220Z,22.20
2023-02-14T10:12:25.300Z,22.20
2023-02-14T10:14:57.271Z,22.20
2023-02-14T10:17:37.653Z,22.20
2023-02-14T10:20:19.856Z,22.10
2023-02-14T10:22:58.867Z,22.10
2023-02-14T10:25:33.595Z,22.10
2023-02-14T10:28:04.050Z,22.10
2023-02-14T10:30:40.453Z,22.10
2023-02-14T10:33:17.645Z,22.10
2023-02-14T10:35:50.253Z,22.10
2023-02-14T10:38:36.332Z,22.10
2023-02-14T10:41:28.565Z,22.10
2023-02-14T10:44:14.917Z,22.10
2023-02-14T10:46:50.528Z,22.00
2023-02-14T10:49:35.659Z,22.10
2023-02-14T10:52:16.599Z,22.10
2023-02-14T10:54:51.979Z,22.10
2023-02-14T10:57:26.772Z,22.70
2023-02-14T11:00:02.170Z,22.10
2023-02-14T11:02:37.552Z,22.10
2023-02-14T11:05:07.646Z,22.10
2023-02-14T11:07:36.450Z,22.10
2023-02-14T11:10:11.430Z,22.10
2023-02-14T11:12:42.555Z,22.20
2023-02-14T11:15:24.339Z,22.10
2023-02-14T11:18:16.807Z,22.10
2023-02-14T11:20:45.557Z,22.10
2023-02-14T11:23:22.560Z,22.10
2023-02-14T11:25:55.793Z,22.10
2023-02-14T11:28:24.735Z,22.10
2023-02-14T11:30:56.002Z,22.10
2023-02-14T11:33:36.258Z,22.10
2023-02-14T11:36:11.985Z,22.10
2023-02-14T11:38:42.446Z,22.10
2023-02-14T11:41:13.877Z,22.10
2023-02-14T11:43:49.302Z,22.10
2023-02-14T11:46:30.511Z,22.10
2023-02-14T11:49:02.907Z,22.10
2023-02-14T11:51:35.391Z,22.30
2023-02-14T11:54:06.541Z,22.10
2023-02-14T11:56:54.062Z,22.10
2023-02-14T11:59:36.199Z,22.10
2023-02-14T12:02:30.237Z,22.10
2023-02-14T12:05:02.609Z,22.10
2023-02-14T12:07:34.571Z,22.10
2023-02-14T12:10:27.015Z,22.10
2023-02-14T12:13:00.955Z,22.00
2023-02-14T12:15:40.822Z,22.00
2023-02-14T12:18:52.556Z,22.10
2023-02-14T12:21:43.369Z,22.00
2023-02-14T12:24:27.695Z,22.00
2023-02-14T12:27:07.456Z,22.20
2023-02-14T12:29:42.693Z,22.00
2023-02-14T12:32:22.045Z,22.00
2023-02-14T12:34:54.632Z,22.00
2023-02-14T12:37:41.765Z,22.00
2023-02-14T12:40:21.650Z,22.00
2023-02-14T12:43:12.107Z,22.00
2023-02-14T12:46:14.098Z,22.00
2023-02-14T12:49:03.121Z,22.00
2023-02-14T12:51:42.287Z,22.00
2023-02-14T12:54:31.248Z,22.00
2023-02-14T12:57:11.716Z,22.10
2023-02-14T12:59:52.249Z,22.10
2023-02-14T13:02:57.118Z,22.10
2023-02-14T13:05:40.891Z,22.10
2023-02-14T13:08:28.839Z,22.10
2023-02-14T13:11:06.529Z,22.60
2023-02-14T13:13:54.412Z,22.10
2023-02-14T13:16:31.658Z,22.10
2023-02-14T13:19:07.204Z,21.60
2023-02-14T13:21:39.804Z,22.10
2023-02-14T13:24:19.619Z,22.10
2023-02-14T13:26:53.923Z,22.10
2023-02-14T13:29:26.043Z,22.10
2023-02-14T13:32:00.198Z,22.10
2023-02-14T13:34:33.817Z,22.10
2023-02-14T13:37:05.784Z,22.10
2023-02-14T13:39:39.877Z,22.10
2023-02-14T13:42:08.828Z,22.10
2023-02-14T13:44:46.553Z,22.10
2023-02-14T13:47:21.234Z,22.10
2023-02-14T13:49:54.892Z,22.10
2023-02-14T13:52:43.949Z,22.10
2023-02-14T13:55:21.375Z,22.10
2023-02-14T13:58:03.053Z,22.10
2023-02-14T14:00:41.803Z,22.10
2023-02-14T14:03:15.916Z,22.10
2023-02-14T14:06:03.963Z,22.10
2023-02-14T14:08:45.343Z,22.00
2023-02-14T14:11:57.231Z,22.10
2023-02-14T14:14:36.540Z,22.10
2023-02-14T14:17:23.230Z,21.50
2023-02-14T14:19:52.330Z,22.10
2023-02-14T14:22:21.453Z,22.20
2023-02-14T14:24:59.378Z,22.20
2023-02-14T14:27:35.698Z,22.30
2023-02-14T14:30:07.312Z,21.90
2023-02-14T14:32:38.922Z,22.10
2023-02-14T14:35:20.986Z,22.10
2023-02-14T14:37:52.767Z,22.10
2023-02-14T14:40:26.859Z,22.10
2023-02-14T14:43:01.723Z,22.20
2023-02-14T14:45:32.515Z,22.30
2023-02-14T14:48:09.015Z,22.30
2023-02-14T14:50:39.764Z,22.30
2023-02-14T14:53:19.773Z,22.30
2023-02-14T14:55:52.411Z,22.30
2023-02-14T14:58:41.914Z,22.30
2023-02-14T15:01:21.421Z,22.30
2023-02-14T15:03:50.073Z,22.30
2023-02-14T15:06:22.351Z,22.30
2023-02-14T15:08:52.209Z,22.30
2023-02-14T15:11:41.207Z,22.30
2023-02-14T15:14:18.562Z,22.30
2023-02-14T15:16:50.163Z,22.30
2023-02-14T15:19:22.993Z,22.30
2023-02-14T15:21:52.098Z,22.30
2023-02-14T15:24:21.222Z,22.30
2023-02-14T15:26:53.416Z,22.30
2023-02-14T15:29:26.871Z,22.30
2023-02-14T15:31:57.606Z,22.30
2023-02-14T15:34:29.510Z,22.30
2023-02-14T15:37:03.535Z,22.20
2023-02-14T15:39:39.131Z,22.30
2023-02-14T15:42:26.174Z,22.20
2023-02-14T15:47:58.002Z,22.10
2023-02-14T15:50:29.994Z,22.20
2023-02-14T15:53:05.926Z,22.30
2023-02-14T15:55:35.802Z,22.30
2023-02-14T15:58:08.066Z,22.40
2023-02-14T16:00:37.586Z,22.40
2023-02-14T16:03:12.935Z,22.50
2023-02-14T16:05:48.580Z,22.80
2023-02-14T16:08:30.592Z,22.50
2023-02-14T16:11:08.845Z,22.60
2023-02-14T16:13:39.689Z,22.50
2023-02-14T16:16:10.371Z,22.50
2023-02-14T16:18:42.349Z,22.50
2023-02-14T16:21:18.423Z,22.40
2023-02-14T16:23:48.474Z,22.40
2023-02-14T16:26:17.005Z,22.40
2023-02-14T16:28:45.366Z,22.40
2023-02-14T16:31:17.732Z,22.40
2023-02-14T16:33:47.609Z,22.40
2023-02-14T16:36:23.497Z,22.40
2023-02-14T16:38:53.119Z,22.40
2023-02-14T16:41:26.488Z,22.40
2023-02-14T16:43:56.190Z,22.50
2023-02-14T16:46:29.632Z,22.50
2023-02-14T16:49:01.026Z,22.60
2023-02-14T16:51:33.384Z,22.50
2023-02-14T16:54:07.473Z,22.70
2023-02-14T16:56:43.315Z,22.70
2023-02-14T16:59:12.053Z,22.80
2023-02-14T17:01:41.090Z,22.80
2023-02-14T17:04:11.373Z,22.80
2023-02-14T17:06:47.355Z,22.80
2023-02-14T17:09:18.761Z,22.80
2023-02-14T17:11:51.521Z,22.80
2023-02-14T17:14:25.251Z,22.70
2023-02-14T17:16:55.848Z,22.70
2023-02-14T17:19:27.059Z,22.70
2023-02-14T17:21:58.722Z,22.70
2023-02-14T17:24:28.369Z,22.70
2023-02-14T17:26:57.300Z,22.70
2023-02-14T17:29:26.210Z,22.80
2023-02-14T17:31:54.888Z,22.80
2023-02-14T17:34:25.096Z,22.90
2023-02-14T17:36:53.454Z,22.90
2023-02-14T17:39:21.840Z,22.90
2023-02-14T17:41:50.754Z,22.80
2023-02-14T17:44:19.352Z,22.80
2023-02-14T17:46:47.918Z,22.90
2023-02-14T17:49:16.782Z,22.90
2023-02-14T17:51:47.129Z,22.70
2023-02-14T17:54:15.790Z,22.80
2023-02-14T17:56:44.392Z,22.80
2023-02-14T17:59:12.856Z,22.80
2023-02-14T18:01:43.250Z,22.70
2023-02-14T18:04:11.806Z,22.70
2023-02-14T18:06:40.350Z,22.70
2023-02-14T18:09:10.882Z,22.70
2023-02-14T18:11:42.427Z,22.80
2023-02-14T18:14:11.430Z,22.70
2023-02-14T18:16:41.012Z,22.90
2023-02-14T18:19:10.118Z,22.70
2023-02-14T18:21:40.384Z,22.70
2023-02-14T18:24:11.538Z,22.70
2023-02-14T18:26:42.159Z,22.70
2023-02-14T18:29:10.950Z,22.50
2023-02-14T18:31:42.485Z,22.70
2023-02-14T18:34:11.615Z,22.70
2023-02-14T18:36:42.715Z,22.60
2023-02-14T18:39:12.825Z,22.60
2023-02-14T18:41:41.262Z,22.60
2023-02-14T18:44:09.721Z,22.60
2023-02-14T18:46:38.322Z,22.70
2023-02-14T18:49:08.655Z,22.60
2023-02-14T18:51:39.670Z,22.60
2023-02-14T18:54:09.344Z,22.60
2023-02-14T18:56:39.940Z,22.60
2023-02-14T18:59:11.305Z,22.60
2023-02-14T19:01:43.453Z,22.60
2023-02-14T19:04:13.743Z,22.60
2023-02-14T19:06:44.197Z,22.60
2023-02-14T19:09:16.162Z,22.10
2023-02-14T19:11:46.755Z,22.60
2023-02-14T19:14:18.701Z,22.50
2023-02-14T19:16:50.821Z,22.50
2023-02-14T19:19:22.910Z,22.50
2023-02-14T19:21:52.192Z,22.50
2023-02-14T19:24:22.988Z,22.50
2023-02-14T19:26:54.685Z,22.50
2023-02-14T19:29:23.992Z,22.50
2023-02-14T19:31:55.340Z,22.50
2023-02-14T19:34:29.184Z,22.50
2023-02-14T19:37:00.630Z,22.60
2023-02-14T19:39:30.967Z,22.60
2023-02-14T19:42:01.146Z,22.60
2023-02-14T19:44:32.530Z,22.60
2023-02-14T19:47:04.117Z,22.60
2023-02-14T19:49:38.618Z,22.50
2023-02-14T19:52:14.176Z,22.50
2023-02-14T19:54:46.793Z,22.50
2023-02-14T19:57:17.799Z,22.50
2023-02-14T19:59:46.372Z,22.50
2023-02-14T20:02:20.953Z,22.50
2023-02-14T20:04:50.060Z,22.50
2023-02-14T20:07:19.648Z,22.60
2023-02-14T20:09:50.282Z,22.60
2023-02-14T20:12:22.647Z,22.60
2023-02-14T20:14:54.099Z,22.60
2023-02-14T20:17:22.490Z,22.60
2023-02-14T20:19:53.097Z,22.70
2023-02-14T20:22:23.053Z,22.70
2023-02-14T20:24:53.800Z,22.70
2023-02-14T20:27:25.845Z,22.60
2023-02-14T20:29:55.426Z,22.70
2023-02-14T20:32:24.147Z,22.70
2023-02-14T20:34:52.921Z,22.80
2023-02-14T20:37:21.725Z,22.80
2023-02-14T20:39:50.886Z,22.80
2023-02-14T20:42:19.212Z,22.80
2023-02-14T20:44:49.895Z,22.80
2023-02-14T20:47:18.548Z,22.80
2023-02-14T20:49:46.959Z,22.80
2023-02-14T20:52:18.011Z,22.70
2023-02-14T20:54:46.535Z,22.70
2023-02-14T20:57:15.020Z,22.70
2023-02-14T20:59:45.208Z,22.70
2023-02-14T21:02:15.831Z,22.70
2023-02-14T21:04:44.135Z,22.60
2023-02-14T21:07:13.006Z,22.60
2023-02-14T21:09:41.391Z,22.70
2023-02-14T21:12:11.227Z,22.60
2023-02-14T21:14:40.494Z,22.60
2023-02-14T21:17:09.498Z,22.60
2023-02-14T21:19:40.207Z,22.60
2023-02-14T21:22:08.900Z,22.60
2023-02-14T21:24:37.629Z,22.60
2023-02-14T21:27:08.010Z,22.50
2023-02-14T21:29:37.022Z,22.60
2023-02-14T21:32:06.629Z,22.60
2023-02-14T21:34:36.585Z,22.60
2023-02-14T21:37:06.605Z,22.60
2023-02-14T21:39:37.912Z,22.60
2023-02-14T21:42:07.616Z,22.60
2023-02-14T21:44:53.792Z,22.60
2023-02-14T21:47:22.680Z,22.60
2023-02-14T21:50:08.309Z,22.50
2023-02-14T21:52:38.219Z,22.50
2023-02-14T21:55:08.516Z,22.50
2023-02-14T21:57:37.078Z,22.50
2023-02-14T22:00:07.513Z,22.50
2023-02-14T22:02:40.360Z,22.50
2023-02-14T22:05:09.586Z,22.50
2023-02-14T22:07:39.755Z,22.50
2023-02-14T22:10:08.973Z,22.50
2023-02-14T22:12:37.770Z,22.50
2023-02-14T22:15:06.930Z,22.50
2023-02-14T22:17:36.071Z,22.50
2023-02-14T22:20:06.392Z,22.50
2023-02-14T22:22:35.209Z,22.50
2023-02-14T22:25:05.336Z,22.50
2023-02-14T22:27:38.489Z,22.50
2023-02-14T22:30:09.102Z,22.50
2023-02-14T22:32:37.934Z,22.50
2023-02-14T22:35:07.993Z,22.50
2023-02-14T22:37:36.386Z,22.50
2023-02-14T22:40:07.926Z,22.50
2023-02-14T22:42:36.362Z,22.50
2023-02-14T22:45:05.248Z,22.40
2023-02-14T22:47:33.712Z,22.40
2023-02-14T22:50:02.064Z,22.50
2023-02-14T22:52:31.828Z,22.50
2023-02-14T22:55:00.313Z,22.50
2023-02-14T22:57:31.791Z,22.50
2023-02-14T23:00:00.289Z,22.50
2023-02-14T23:02:28.634Z,22.50
2023-02-14T23:04:57.358Z,22.50
2023-02-14T23:07:25.760Z,22.50
2023-02-14T23:09:54.101Z,22.40
2023-02-14T23:12:40.014Z,22.30
2023-02-14T23:15:28.320Z,22.50
2023-02-14T23:18:26.177Z,22.70
2023-02-14T23:21:12.519Z,22.40
2023-02-14T23:23:40.873Z,22.50
2023-02-14T23:26:09.237Z,22.80
2023-02-14T23:28:37.589Z,22.50
2023-02-14T23:31:07.622Z,22.50
2023-02-14T23:33:36.042Z,22.30
2023-02-14T23:36:05.457Z,22.40
2023-02-14T23:38:33.832Z,22.40
2023-02-14T23:41:27.987Z,22.40
2023-02-14T23:43:56.368Z,22.40
2023-02-14T23:46:26.160Z,22.40
2023-02-14T23:48:54.494Z,22.40
2023-02-14T23:51:22.789Z,22.40
2023-02-14T23:53:53.512Z,23.00
2023-02-14T23:56:23.801Z,22.40
2023-02-14T23:58:52.324Z,22.40
